Terminal Aerodrome Forecast
Issued by NWS

Home | Current Version | Previous Version | Text Only | Print | Product List | Glossary On
Versions: 1 2 3 4 5 6 7 8 9 10 11 12 13 14 15 16 17 18 19 20 21 22 23
000
FTUS43 KUNR 191700
TAFGCC
TAF
KGCC 191720Z 1918/2018 15011KT P6SM SCT200
     FM200000 15006KT P6SM SCT050 BKN100
     FM200800 24007KT P6SM SCT050 BKN100=

USA.gov is the U.S. government's official web portal to all federal, state and local government web resources and services.